TimeCDT,TemperatureF,Dew PointF,Humidity,Sea Level PressureIn,VisibilityMPH,Wind Direction,Wind SpeedMPH,Gust SpeedMPH,PrecipitationIn,Events,Conditions,WindDirDegrees,DateUTC
12:02 AM,69.8,62.6,78,29.96,8.0,SW,15.0,23.0,0.01,Rain,Light Rain,220,2013-05-31 05:02:00
12:53 AM,66.9,63.0,87,29.94,7.0,SSW,15.0,20.7,0.05,Rain,Rain,210,2013-05-31 05:53:00
1:53 AM,66.0,64.0,93,29.90,10.0,South,9.2,-,0.13,Rain,Light Rain,180,2013-05-31 06:53:00
2:53 AM,66.0,64.0,93,29.87,10.0,SE,8.1,-,0.01,,Mostly Cloudy,140,2013-05-31 07:53:00
3:26 AM,66.2,64.4,94,29.88,10.0,SSE,8.1,-,N/A,,Mostly Cloudy,160,2013-05-31 08:26:00
3:45 AM,66.2,64.4,94,29.88,10.0,South,9.2,-,N/A,,Scattered Clouds,170,2013-05-31 08:45:00
3:53 AM,66.9,64.0,90,29.86,10.0,South,9.2,-,N/A,,Scattered Clouds,170,2013-05-31 08:53:00
4:53 AM,68.0,64.0,87,29.86,10.0,South,10.4,-,N/A,,Partly Cloudy,180,2013-05-31 09:53:00
5:53 AM,69.1,64.9,87,29.88,10.0,South,11.5,-,0.00,Rain,Light Rain,190,2013-05-31 10:53:00
6:53 AM,68.0,64.0,87,29.90,10.0,South,10.4,-,0.00,,Clear,180,2013-05-31 11:53:00
7:53 AM,69.1,64.0,84,29.90,10.0,South,8.1,16.1,N/A,,Clear,190,2013-05-31 12:53:00
8:53 AM,70.0,63.0,78,29.90,10.0,South,16.1,21.9,N/A,,Clear,190,2013-05-31 13:53:00
9:53 AM,73.9,64.0,71,29.90,10.0,SSW,12.7,-,N/A,,Clear,200,2013-05-31 14:53:00
10:22 AM,73.4,62.6,69,29.92,10.0,South,16.1,23.0,N/A,,Mostly Cloudy,190,2013-05-31 15:22:00
10:53 AM,73.0,64.0,73,29.91,10.0,South,13.8,25.3,N/A,,Overcast,190,2013-05-31 15:53:00
11:53 AM,72.0,64.0,76,29.92,10.0,South,13.8,21.9,N/A,,Overcast,190,2013-05-31 16:53:00
12:53 PM,75.0,66.0,73,29.89,10.0,SSW,13.8,20.7,N/A,,Mostly Cloudy,210,2013-05-31 17:53:00
1:50 PM,75.2,64.4,69,29.89,10.0,SSW,13.8,23.0,N/A,,Mostly Cloudy,210,2013-05-31 18:50:00
1:53 PM,75.0,64.0,69,29.88,10.0,South,10.4,23.0,N/A,,Mostly Cloudy,190,2013-05-31 18:53:00
2:53 PM,75.0,66.9,76,29.87,10.0,South,15.0,-,N/A,,Mostly Cloudy,180,2013-05-31 19:53:00
3:11 PM,75.2,66.2,73,29.87,10.0,South,12.7,-,N/A,,Mostly Cloudy,180,2013-05-31 20:11:00
3:25 PM,75.2,66.2,73,29.86,10.0,South,11.5,17.3,N/A,,Scattered Clouds,180,2013-05-31 20:25:00
3:38 PM,75.2,66.2,73,29.86,10.0,South,9.2,-,N/A,,Mostly Cloudy,190,2013-05-31 20:38:00
3:48 PM,75.2,66.2,73,29.86,10.0,SSW,12.7,-,N/A,,Scattered Clouds,200,2013-05-31 20:48:00
3:53 PM,75.9,66.0,71,29.85,10.0,SSW,15.0,-,N/A,,Scattered Clouds,200,2013-05-31 20:53:00
4:53 PM,75.9,64.9,69,29.84,10.0,South,12.7,-,N/A,,Mostly Cloudy,190,2013-05-31 21:53:00
5:53 PM,75.0,66.9,76,29.80,10.0,South,9.2,20.7,N/A,,Clear,180,2013-05-31 22:53:00
6:53 PM,72.0,68.0,87,29.75,5.0,SSE,17.3,27.6,0.03,Rain,Light Rain,150,2013-05-31 23:53:00
7:53 PM,71.1,62.1,73,29.78,10.0,SW,9.2,-,0.00,,Clear,220,2013-06-01 00:53:00
8:53 PM,68.0,62.1,81,29.80,10.0,SSW,8.1,-,N/A,,Scattered Clouds,210,2013-06-01 01:53:00
9:51 PM,68.0,62.6,83,29.84,10.0,South,5.8,-,N/A,,Overcast,180,2013-06-01 02:51:00
9:53 PM,66.9,63.0,87,29.83,10.0,South,6.9,-,N/A,,Overcast,170,2013-06-01 02:53:00
10:53 PM,66.9,64.9,93,29.82,10.0,SE,9.2,-,0.01,,Overcast,140,2013-06-01 03:53:00
11:14 PM,66.2,64.4,94,29.83,10.0,WNW,4.6,-,N/A,,Overcast,290,2013-06-01 04:14:00
11:23 PM,68.0,66.2,94,29.82,10.0,SSE,5.8,-,N/A,,Overcast,160,2013-06-01 04:23:00
11:31 PM,68.0,66.2,94,29.82,10.0,SE,10.4,-,N/A,,Overcast,140,2013-06-01 04:31:00
11:53 PM,69.1,66.9,93,29.81,10.0,SSE,8.1,-,N/A,,Overcast,150,2013-06-01 04:53:00